sensor_id;sensor_type;location;lat;lon;timestamp;pressure;altitude;pressure_sealevel;temperature;humidity
66479;BME280;53294;47.912;13.526;2022-07-29T00:02:25;96071.31;;;23.68;53.90
66479;BME280;53294;47.912;13.526;2022-07-29T00:04:51;96062.59;;;23.52;54.36
66479;BME280;53294;47.912;13.526;2022-07-29T00:07:19;96070.28;;;23.28;55.21
66479;BME280;53294;47.912;13.526;2022-07-29T00:09:46;96072.72;;;23.40;54.42
66479;BME280;53294;47.912;13.526;2022-07-29T00:12:19;96077.00;;;23.34;54.80
66479;BME280;53294;47.912;13.526;2022-07-29T00:14:54;96077.47;;;23.51;54.16
66479;BME280;53294;47.912;13.526;2022-07-29T00:17:22;96078.72;;;23.64;53.20
66479;BME280;53294;47.912;13.526;2022-07-29T00:19:49;96083.06;;;23.69;53.42
66479;BME280;53294;47.912;13.526;2022-07-29T00:22:16;96088.59;;;23.79;52.96
66479;BME280;53294;47.912;13.526;2022-07-29T00:24:43;96081.91;;;23.73;53.29
66479;BME280;53294;47.912;13.526;2022-07-29T00:27:09;96081.47;;;23.67;53.04
66479;BME280;53294;47.912;13.526;2022-07-29T00:29:36;96084.66;;;23.70;53.42
66479;BME280;53294;47.912;13.526;2022-07-29T00:32:03;96072.88;;;23.69;52.90
66479;BME280;53294;47.912;13.526;2022-07-29T00:34:30;96081.34;;;23.42;55.38
66479;BME280;53294;47.912;13.526;2022-07-29T00:37:15;96068.91;;;23.56;54.33
66479;BME280;53294;47.912;13.526;2022-07-29T00:39:42;96076.75;;;23.64;53.67
66479;BME280;53294;47.912;13.526;2022-07-29T00:42:09;96071.28;;;23.64;53.54
66479;BME280;53294;47.912;13.526;2022-07-29T00:44:40;96072.09;;;23.65;53.08
66479;BME280;53294;47.912;13.526;2022-07-29T00:47:09;96080.34;;;23.72;52.90
66479;BME280;53294;47.912;13.526;2022-07-29T00:49:39;96070.97;;;23.77;53.09
66479;BME280;53294;47.912;13.526;2022-07-29T00:52:07;96075.09;;;23.49;55.05
66479;BME280;53294;47.912;13.526;2022-07-29T00:54:35;96077.38;;;23.36;55.78
66479;BME280;53294;47.912;13.526;2022-07-29T00:57:11;96085.34;;;23.56;54.60
66479;BME280;53294;47.912;13.526;2022-07-29T00:59:38;96080.28;;;23.61;54.81
66479;BME280;53294;47.912;13.526;2022-07-29T01:02:04;96090.31;;;22.91;58.35
66479;BME280;53294;47.912;13.526;2022-07-29T01:04:32;96088.41;;;22.54;58.99
66479;BME280;53294;47.912;13.526;2022-07-29T01:07:01;96088.59;;;22.75;57.86
66479;BME280;53294;47.912;13.526;2022-07-29T01:09:31;96087.28;;;23.00;56.50
66479;BME280;53294;47.912;13.526;2022-07-29T01:12:17;96088.88;;;23.04;55.29
66479;BME280;53294;47.912;13.526;2022-07-29T01:14:46;96089.81;;;22.78;56.14
66479;BME280;53294;47.912;13.526;2022-07-29T01:17:20;96077.56;;;22.65;55.76
66479;BME280;53294;47.912;13.526;2022-07-29T01:20:02;96072.84;;;22.65;55.96
66479;BME280;53294;47.912;13.526;2022-07-29T01:31:10;96074.38;;;20.84;64.95
66479;BME280;53294;47.912;13.526;2022-07-29T01:33:57;96077.13;;;21.11;63.01
66479;BME280;53294;47.912;13.526;2022-07-29T01:36:37;96077.69;;;21.74;59.49
66479;BME280;53294;47.912;13.526;2022-07-29T01:39:14;96071.72;;;21.98;58.42
66479;BME280;53294;47.912;13.526;2022-07-29T01:41:50;96074.66;;;22.13;56.90
66479;BME280;53294;47.912;13.526;2022-07-29T01:44:32;96067.88;;;22.37;56.19
66479;BME280;53294;47.912;13.526;2022-07-29T01:47:14;96071.09;;;22.43;56.05
66479;BME280;53294;47.912;13.526;2022-07-29T01:49:46;96073.63;;;22.62;55.82
66479;BME280;53294;47.912;13.526;2022-07-29T01:52:27;96068.69;;;22.79;55.52
66479;BME280;53294;47.912;13.526;2022-07-29T01:54:59;96059.72;;;22.82;55.03
66479;BME280;53294;47.912;13.526;2022-07-29T01:57:31;96062.47;;;22.82;55.35
66479;BME280;53294;47.912;13.526;2022-07-29T01:59:59;96064.44;;;22.85;55.42
66479;BME280;53294;47.912;13.526;2022-07-29T02:02:29;96055.13;;;22.93;54.68
66479;BME280;53294;47.912;13.526;2022-07-29T02:04:58;96055.19;;;23.00;54.90
66479;BME280;53294;47.912;13.526;2022-07-29T02:07:29;96052.84;;;23.02;54.53
66479;BME280;53294;47.912;13.526;2022-07-29T02:09:58;96055.94;;;22.97;55.62
66479;BME280;53294;47.912;13.526;2022-07-29T02:12:27;96052.81;;;22.95;55.34
66479;BME280;53294;47.912;13.526;2022-07-29T02:14:59;96048.88;;;22.96;55.08
66479;BME280;53294;47.912;13.526;2022-07-29T02:17:36;96046.22;;;23.07;54.53
66479;BME280;53294;47.912;13.526;2022-07-29T02:20:07;96050.53;;;23.04;54.63
66479;BME280;53294;47.912;13.526;2022-07-29T02:22:37;96049.63;;;22.89;55.17
66479;BME280;53294;47.912;13.526;2022-07-29T02:25:06;96052.34;;;22.86;55.31
66479;BME280;53294;47.912;13.526;2022-07-29T02:27:40;96043.75;;;22.91;55.10
66479;BME280;53294;47.912;13.526;2022-07-29T02:30:08;96041.09;;;22.98;55.07
66479;BME280;53294;47.912;13.526;2022-07-29T02:32:37;96033.94;;;22.83;55.94
66479;BME280;53294;47.912;13.526;2022-07-29T02:35:08;96031.28;;;22.93;55.71
66479;BME280;53294;47.912;13.526;2022-07-29T02:37:36;96030.53;;;23.00;55.00
66479;BME280;53294;47.912;13.526;2022-07-29T02:40:04;96027.03;;;23.00;55.03
66479;BME280;53294;47.912;13.526;2022-07-29T02:42:33;96026.19;;;22.95;55.26
66479;BME280;53294;47.912;13.526;2022-07-29T02:45:03;96025.75;;;22.90;55.32
66479;BME280;53294;47.912;13.526;2022-07-29T02:50:21;96021.22;;;23.08;54.44
66479;BME280;53294;47.912;13.526;2022-07-29T02:53:14;96020.75;;;22.99;54.80
66479;BME280;53294;47.912;13.526;2022-07-29T02:55:44;96030.53;;;23.00;55.03
66479;BME280;53294;47.912;13.526;2022-07-29T02:58:42;96023.97;;;23.08;54.24
66479;BME280;53294;47.912;13.526;2022-07-29T03:01:15;96019.97;;;23.02;54.28
66479;BME280;53294;47.912;13.526;2022-07-29T03:03:48;96011.38;;;23.00;54.37
66479;BME280;53294;47.912;13.526;2022-07-29T03:06:17;96015.25;;;22.99;54.59
66479;BME280;53294;47.912;13.526;2022-07-29T03:09:02;96014.88;;;22.97;54.79
66479;BME280;53294;47.912;13.526;2022-07-29T03:11:36;96017.59;;;22.93;54.75
66479;BME280;53294;47.912;13.526;2022-07-29T03:14:16;96012.13;;;22.93;54.90
66479;BME280;53294;47.912;13.526;2022-07-29T03:16:44;96013.53;;;22.76;55.57
66479;BME280;53294;47.912;13.526;2022-07-29T03:19:11;96013.59;;;22.84;55.29
66479;BME280;53294;47.912;13.526;2022-07-29T03:21:38;96010.50;;;22.89;55.15
66479;BME280;53294;47.912;13.526;2022-07-29T03:24:06;96008.94;;;22.88;55.53
66479;BME280;53294;47.912;13.526;2022-07-29T03:26:37;96010.44;;;22.78;56.28
66479;BME280;53294;47.912;13.526;2022-07-29T03:29:04;96018.19;;;22.72;56.70
66479;BME280;53294;47.912;13.526;2022-07-29T03:31:32;96021.22;;;22.60;56.54
66479;BME280;53294;47.912;13.526;2022-07-29T03:33:59;96021.56;;;22.55;57.20
66479;BME280;53294;47.912;13.526;2022-07-29T03:36:26;96026.22;;;22.51;56.92
66479;BME280;53294;47.912;13.526;2022-07-29T03:38:53;96027.41;;;22.50;57.24
66479;BME280;53294;47.912;13.526;2022-07-29T03:41:22;96029.81;;;22.62;56.67
66479;BME280;53294;47.912;13.526;2022-07-29T03:43:51;96026.75;;;22.67;56.12
66479;BME280;53294;47.912;13.526;2022-07-29T03:46:20;96013.88;;;22.71;56.07
66479;BME280;53294;47.912;13.526;2022-07-29T03:48:50;96022.84;;;22.68;56.04
66479;BME280;53294;47.912;13.526;2022-07-29T03:51:19;96024.34;;;22.62;56.51
66479;BME280;53294;47.912;13.526;2022-07-29T03:54:01;96021.56;;;22.55;57.16
66479;BME280;53294;47.912;13.526;2022-07-29T03:56:38;96021.44;;;22.07;58.58
66479;BME280;53294;47.912;13.526;2022-07-29T03:59:06;96026.09;;;22.02;58.32
66479;BME280;53294;47.912;13.526;2022-07-29T04:01:34;96026.50;;;22.04;58.53
66479;BME280;53294;47.912;13.526;2022-07-29T04:04:02;96021.19;;;22.19;58.27
66479;BME280;53294;47.912;13.526;2022-07-29T04:06:29;96028.84;;;22.06;58.87
66479;BME280;53294;47.912;13.526;2022-07-29T04:08:55;96030.09;;;22.12;58.66
66479;BME280;53294;47.912;13.526;2022-07-29T04:11:22;96025.44;;;22.16;58.68
66479;BME280;53294;47.912;13.526;2022-07-29T04:13:49;96038.09;;;21.94;59.79
66479;BME280;53294;47.912;13.526;2022-07-29T04:16:15;96047.97;;;22.02;59.38
66479;BME280;53294;47.912;13.526;2022-07-29T04:18:42;96042.22;;;22.11;58.47
66479;BME280;53294;47.912;13.526;2022-07-29T04:21:09;96051.09;;;22.04;58.84
66479;BME280;53294;47.912;13.526;2022-07-29T04:23:35;96044.75;;;21.97;59.17
66479;BME280;53294;47.912;13.526;2022-07-29T04:26:19;96048.09;;;22.51;56.84
66479;BME280;53294;47.912;13.526;2022-07-29T04:28:46;96055.28;;;22.29;57.77
66479;BME280;53294;47.912;13.526;2022-07-29T04:31:13;96057.13;;;22.17;57.20
66479;BME280;53294;47.912;13.526;2022-07-29T04:33:40;96052.41;;;22.14;56.52
66479;BME280;53294;47.912;13.526;2022-07-29T04:36:06;96051.69;;;22.21;56.15
66479;BME280;53294;47.912;13.526;2022-07-29T04:38:53;96049.03;;;22.28;56.30
66479;BME280;53294;47.912;13.526;2022-07-29T04:41:20;96053.03;;;22.34;56.30
66479;BME280;53294;47.912;13.526;2022-07-29T04:43:47;96045.97;;;22.33;57.16
66479;BME280;53294;47.912;13.526;2022-07-29T04:46:13;96042.91;;;22.38;57.71
66479;BME280;53294;47.912;13.526;2022-07-29T04:48:40;96044.88;;;22.08;59.65
66479;BME280;53294;47.912;13.526;2022-07-29T04:51:07;96053.09;;;21.74;62.11
66479;BME280;53294;47.912;13.526;2022-07-29T04:53:34;96047.34;;;21.86;61.41
66479;BME280;53294;47.912;13.526;2022-07-29T04:56:01;96039.59;;;22.22;59.42
66479;BME280;53294;47.912;13.526;2022-07-29T04:58:28;96047.59;;;22.38;58.32
66479;BME280;53294;47.912;13.526;2022-07-29T05:00:55;96048.00;;;22.40;58.45
66479;BME280;53294;47.912;13.526;2022-07-29T05:03:21;96046.06;;;22.40;58.67
66479;BME280;53294;47.912;13.526;2022-07-29T05:05:48;96048.44;;;22.46;58.60
66479;BME280;53294;47.912;13.526;2022-07-29T05:08:15;96046.19;;;22.55;58.50
66479;BME280;53294;47.912;13.526;2022-07-29T05:10:41;96041.59;;;22.66;57.90
66479;BME280;53294;47.912;13.526;2022-07-29T05:13:08;96050.66;;;22.74;58.00
66479;BME280;53294;47.912;13.526;2022-07-29T05:15:36;96046.41;;;22.80;57.69
66479;BME280;53294;47.912;13.526;2022-07-29T05:18:03;96047.19;;;22.81;57.70
66479;BME280;53294;47.912;13.526;2022-07-29T05:20:30;96050.75;;;22.85;57.93
66479;BME280;53294;47.912;13.526;2022-07-29T05:22:58;96045.72;;;22.90;58.05
66479;BME280;53294;47.912;13.526;2022-07-29T05:25:25;96046.53;;;22.94;58.16
66479;BME280;53294;47.912;13.526;2022-07-29T05:28:11;96048.88;;;22.92;58.49
66479;BME280;53294;47.912;13.526;2022-07-29T05:30:38;96049.31;;;22.98;57.53
66479;BME280;53294;47.912;13.526;2022-07-29T05:33:04;96052.03;;;22.98;57.51
66479;BME280;53294;47.912;13.526;2022-07-29T05:35:31;96042.72;;;23.06;56.75
66479;BME280;53294;47.912;13.526;2022-07-29T05:37:58;96043.56;;;23.10;56.71
66479;BME280;53294;47.912;13.526;2022-07-29T05:40:24;96054.16;;;23.16;56.78
66479;BME280;53294;47.912;13.526;2022-07-29T05:42:51;96048.28;;;23.14;56.89
66479;BME280;53294;47.912;13.526;2022-07-29T05:45:18;96057.72;;;23.20;57.35
66479;BME280;53294;47.912;13.526;2022-07-29T05:47:44;96057.75;;;23.27;57.83
66479;BME280;53294;47.912;13.526;2022-07-29T05:50:12;96049.19;;;23.32;58.14
66479;BME280;53294;47.912;13.526;2022-07-29T05:52:38;96051.13;;;23.35;58.04
66479;BME280;53294;47.912;13.526;2022-07-29T05:55:05;96058.59;;;23.38;58.14
66479;BME280;53294;47.912;13.526;2022-07-29T05:57:32;96059.03;;;23.40;58.17
66479;BME280;53294;47.912;13.526;2022-07-29T05:59:59;96056.63;;;23.35;58.15
66479;BME280;53294;47.912;13.526;2022-07-29T06:02:26;96059.81;;;23.44;58.04
66479;BME280;53294;47.912;13.526;2022-07-29T06:04:52;96059.88;;;23.52;57.62
66479;BME280;53294;47.912;13.526;2022-07-29T06:07:20;96056.34;;;23.55;57.08
66479;BME280;53294;47.912;13.526;2022-07-29T06:09:47;96063.75;;;23.43;58.16
66479;BME280;53294;47.912;13.526;2022-07-29T06:12:13;96063.38;;;23.48;58.15
66479;BME280;53294;47.912;13.526;2022-07-29T06:14:40;96062.97;;;23.46;57.74
66479;BME280;53294;47.912;13.526;2022-07-29T06:17:07;96063.38;;;23.52;57.70
66479;BME280;53294;47.912;13.526;2022-07-29T06:19:34;96062.63;;;23.55;57.89
66479;BME280;53294;47.912;13.526;2022-07-29T06:22:03;96074.06;;;23.68;57.09
66479;BME280;53294;47.912;13.526;2022-07-29T06:24:29;96068.59;;;23.68;56.98
66479;BME280;53294;47.912;13.526;2022-07-29T06:26:57;96068.97;;;23.70;57.07
66479;BME280;53294;47.912;13.526;2022-07-29T06:29:24;96070.56;;;23.71;56.33
66479;BME280;53294;47.912;13.526;2022-07-29T06:31:50;96070.56;;;23.78;56.85
66479;BME280;53294;47.912;13.526;2022-07-29T06:34:17;96080.84;;;23.85;56.73
66479;BME280;53294;47.912;13.526;2022-07-29T06:36:46;96072.22;;;23.87;56.71
66479;BME280;53294;47.912;13.526;2022-07-29T06:39:13;96071.47;;;23.90;56.51
66479;BME280;53294;47.912;13.526;2022-07-29T06:41:40;96081.66;;;23.93;56.74
66479;BME280;53294;47.912;13.526;2022-07-29T06:44:07;96082.44;;;23.90;56.99
66479;BME280;53294;47.912;13.526;2022-07-29T06:46:34;96085.56;;;23.92;56.58
66479;BME280;53294;47.912;13.526;2022-07-29T06:49:01;96085.09;;;23.82;56.90
66479;BME280;53294;47.912;13.526;2022-07-29T06:51:28;96086.94;;;23.64;58.12
66479;BME280;53294;47.912;13.526;2022-07-29T06:53:55;96093.31;;;23.82;57.34
66479;BME280;53294;47.912;13.526;2022-07-29T06:56:32;96094.16;;;23.87;57.22
66479;BME280;53294;47.912;13.526;2022-07-29T06:59:06;96096.53;;;23.92;57.14
66479;BME280;53294;47.912;13.526;2022-07-29T07:01:33;96105.13;;;23.87;56.58
66479;BME280;53294;47.912;13.526;2022-07-29T07:04:00;96102.03;;;23.92;56.82
66479;BME280;53294;47.912;13.526;2022-07-29T07:06:27;96108.34;;;24.03;56.24
66479;BME280;53294;47.912;13.526;2022-07-29T07:08:54;96101.25;;;23.95;57.00
66479;BME280;53294;47.912;13.526;2022-07-29T07:11:20;96101.69;;;24.04;56.71
66479;BME280;53294;47.912;13.526;2022-07-29T07:13:47;96098.56;;;24.13;56.36
66479;BME280;53294;47.912;13.526;2022-07-29T07:16:14;96095.06;;;24.12;57.00
66479;BME280;53294;47.912;13.526;2022-07-29T07:18:41;96095.47;;;24.22;56.39
66479;BME280;53294;47.912;13.526;2022-07-29T07:21:08;96094.31;;;24.23;56.56
66479;BME280;53294;47.912;13.526;2022-07-29T07:23:35;96094.31;;;24.30;56.79
66479;BME280;53294;47.912;13.526;2022-07-29T07:26:02;96087.28;;;24.36;56.32
66479;BME280;53294;47.912;13.526;2022-07-29T07:28:29;96098.69;;;24.38;56.80
66479;BME280;53294;47.912;13.526;2022-07-29T07:30:56;96093.13;;;24.24;57.55
66479;BME280;53294;47.912;13.526;2022-07-29T07:33:22;96091.97;;;24.28;56.68
66479;BME280;53294;47.912;13.526;2022-07-29T07:35:49;96082.19;;;24.34;56.60
66479;BME280;53294;47.912;13.526;2022-07-29T07:38:16;96087.25;;;24.25;57.74
66479;BME280;53294;47.912;13.526;2022-07-29T07:40:43;96084.16;;;24.34;57.80
66479;BME280;53294;47.912;13.526;2022-07-29T07:43:09;96096.63;;;24.13;58.31
66479;BME280;53294;47.912;13.526;2022-07-29T07:45:36;96086.84;;;24.23;58.38
66479;BME280;53294;47.912;13.526;2022-07-29T07:48:04;96086.44;;;24.17;57.72
66479;BME280;53294;47.912;13.526;2022-07-29T07:50:31;96087.22;;;24.14;57.73
66479;BME280;53294;47.912;13.526;2022-07-29T07:52:58;96086.09;;;24.23;57.36
66479;BME280;53294;47.912;13.526;2022-07-29T07:55:26;96081.78;;;24.36;57.59
66479;BME280;53294;47.912;13.526;2022-07-29T07:57:54;96087.34;;;24.50;57.01
66479;BME280;53294;47.912;13.526;2022-07-29T08:00:21;96078.00;;;24.66;56.08
66479;BME280;53294;47.912;13.526;2022-07-29T08:02:49;96077.59;;;24.75;55.90
66479;BME280;53294;47.912;13.526;2022-07-29T08:05:17;96087.41;;;24.90;55.44
66479;BME280;53294;47.912;13.526;2022-07-29T08:07:45;96083.50;;;24.91;55.88
66479;BME280;53294;47.912;13.526;2022-07-29T08:10:17;96076.03;;;24.91;55.49
66479;BME280;53294;47.912;13.526;2022-07-29T08:13:07;96081.53;;;25.13;55.53
66479;BME280;53294;47.912;13.526;2022-07-29T08:15:35;96081.94;;;24.97;56.28
66479;BME280;53294;47.912;13.526;2022-07-29T08:18:01;96084.69;;;25.08;54.82
66479;BME280;53294;47.912;13.526;2022-07-29T08:20:34;96089.41;;;25.25;54.64
66479;BME280;53294;47.912;13.526;2022-07-29T08:23:02;96086.66;;;25.47;54.91
66479;BME280;53294;47.912;13.526;2022-07-29T08:25:30;96078.00;;;25.59;54.01
66479;BME280;53294;47.912;13.526;2022-07-29T08:27:58;96075.97;;;25.82;53.75
66479;BME280;53294;47.912;13.526;2022-07-29T08:30:25;96071.13;;;26.22;52.44
66479;BME280;53294;47.912;13.526;2022-07-29T08:32:52;96068.31;;;26.32;51.46
66479;BME280;53294;47.912;13.526;2022-07-29T08:35:22;96074.75;;;26.01;52.80
66479;BME280;53294;47.912;13.526;2022-07-29T08:37:49;96066.88;;;26.06;52.80
66479;BME280;53294;47.912;13.526;2022-07-29T08:40:16;96066.59;;;26.57;52.21
66479;BME280;53294;47.912;13.526;2022-07-29T08:42:44;96062.53;;;26.83;50.59
66479;BME280;53294;47.912;13.526;2022-07-29T08:45:11;96057.06;;;26.76;49.95
66479;BME280;53294;47.912;13.526;2022-07-29T08:47:39;96060.13;;;26.22;51.13
66479;BME280;53294;47.912;13.526;2022-07-29T08:50:10;96069.81;;;26.48;51.86
66479;BME280;53294;47.912;13.526;2022-07-29T08:52:39;96067.91;;;27.01;50.06
66479;BME280;53294;47.912;13.526;2022-07-29T08:55:07;96070.78;;;27.35;49.44
66479;BME280;53294;47.912;13.526;2022-07-29T08:57:35;96076.38;;;27.25;49.82
66479;BME280;53294;47.912;13.526;2022-07-29T09:00:05;96069.09;;;27.49;49.44
66479;BME280;53294;47.912;13.526;2022-07-29T09:02:41;96069.59;;;27.78;48.02
66479;BME280;53294;47.912;13.526;2022-07-29T09:05:12;96074.19;;;27.88;48.71
66479;BME280;53294;47.912;13.526;2022-07-29T09:07:39;96062.16;;;28.09;46.80
66479;BME280;53294;47.912;13.526;2022-07-29T09:10:06;96061.13;;;27.92;49.22
66479;BME280;53294;47.912;13.526;2022-07-29T09:12:33;96070.41;;;27.71;46.90
66479;BME280;53294;47.912;13.526;2022-07-29T09:15:03;96066.44;;;27.76;49.76
66479;BME280;53294;47.912;13.526;2022-07-29T09:17:49;96062.44;;;27.81;47.09
66479;BME280;53294;47.912;13.526;2022-07-29T09:20:19;96052.50;;;28.21;46.50
66479;BME280;53294;47.912;13.526;2022-07-29T09:22:46;96059.25;;;28.47;45.22
66479;BME280;53294;47.912;13.526;2022-07-29T09:25:35;96057.13;;;28.32;47.33
66479;BME280;53294;47.912;13.526;2022-07-29T09:28:13;96054.63;;;27.75;46.71
66479;BME280;53294;47.912;13.526;2022-07-29T09:30:54;96052.38;;;28.01;48.22
66479;BME280;53294;47.912;13.526;2022-07-29T09:33:22;96055.13;;;28.01;47.46
66479;BME280;53294;47.912;13.526;2022-07-29T09:36:00;96052.56;;;28.48;46.12
66479;BME280;53294;47.912;13.526;2022-07-29T09:38:31;96049.66;;;29.10;44.49
66479;BME280;53294;47.912;13.526;2022-07-29T09:41:04;96048.47;;;29.35;42.87
66479;BME280;53294;47.912;13.526;2022-07-29T09:43:32;96041.63;;;29.43;43.73
66479;BME280;53294;47.912;13.526;2022-07-29T09:46:25;96035.41;;;29.59;42.94
66479;BME280;53294;47.912;13.526;2022-07-29T09:49:08;96023.16;;;29.80;42.27
66479;BME280;53294;47.912;13.526;2022-07-29T09:51:36;96028.63;;;29.84;41.22
66479;BME280;53294;47.912;13.526;2022-07-29T09:54:22;96032.97;;;30.05;41.18
66479;BME280;53294;47.912;13.526;2022-07-29T09:56:50;96024.81;;;30.14;41.62
66479;BME280;53294;47.912;13.526;2022-07-29T09:59:16;96025.22;;;30.33;41.25
66479;BME280;53294;47.912;13.526;2022-07-29T10:01:43;96027.13;;;30.19;42.12
66479;BME280;53294;47.912;13.526;2022-07-29T10:04:10;96020.19;;;30.48;42.33
66479;BME280;53294;47.912;13.526;2022-07-29T10:06:55;96027.31;;;30.65;40.46
66479;BME280;53294;47.912;13.526;2022-07-29T10:09:29;96020.81;;;30.88;42.24
66479;BME280;53294;47.912;13.526;2022-07-29T10:12:11;96021.88;;;31.11;40.06
66479;BME280;53294;47.912;13.526;2022-07-29T10:14:41;96020.22;;;31.13;41.65
66479;BME280;53294;47.912;13.526;2022-07-29T10:17:09;96018.31;;;31.10;41.15
66479;BME280;53294;47.912;13.526;2022-07-29T10:19:37;96019.78;;;31.31;41.21
66479;BME280;53294;47.912;13.526;2022-07-29T10:22:07;96012.09;;;31.52;38.25
66479;BME280;53294;47.912;13.526;2022-07-29T10:24:35;96004.63;;;31.65;39.42
66479;BME280;53294;47.912;13.526;2022-07-29T10:27:05;96019.53;;;31.72;39.55
66479;BME280;53294;47.912;13.526;2022-07-29T10:29:32;96014.56;;;31.79;36.94
66479;BME280;53294;47.912;13.526;2022-07-29T10:43:26;96012.09;;;32.11;36.82
66479;BME280;53294;47.912;13.526;2022-07-29T10:45:59;96012.88;;;32.11;37.23
66479;BME280;53294;47.912;13.526;2022-07-29T10:48:26;96008.25;;;32.34;37.01
66479;BME280;53294;47.912;13.526;2022-07-29T10:50:58;96002.31;;;32.19;36.51
66479;BME280;53294;47.912;13.526;2022-07-29T10:53:47;96005.69;;;31.97;37.21
66479;BME280;53294;47.912;13.526;2022-07-29T10:56:23;95998.22;;;32.11;37.33
66479;BME280;53294;47.912;13.526;2022-07-29T11:01:49;95996.34;;;32.33;36.83
66479;BME280;53294;47.912;13.526;2022-07-29T11:07:12;96004.91;;;32.26;38.61
66479;BME280;53294;47.912;13.526;2022-07-29T11:09:40;96006.13;;;32.51;38.41
66479;BME280;53294;47.912;13.526;2022-07-29T11:15:06;96000.16;;;32.65;38.04
66479;BME280;53294;47.912;13.526;2022-07-29T11:25:45;96009.56;;;32.93;35.77
66479;BME280;53294;47.912;13.526;2022-07-29T11:28:20;96001.91;;;32.85;38.49
66479;BME280;53294;47.912;13.526;2022-07-29T11:30:52;96000.34;;;32.84;38.14
66479;BME280;53294;47.912;13.526;2022-07-29T11:33:33;95993.13;;;32.48;38.05
66479;BME280;53294;47.912;13.526;2022-07-29T11:36:20;95995.88;;;32.22;38.00
66479;BME280;53294;47.912;13.526;2022-07-29T11:39:24;95993.94;;;32.06;37.60
66479;BME280;53294;47.912;13.526;2022-07-29T11:45:00;96004.53;;;31.69;38.40
66479;BME280;53294;47.912;13.526;2022-07-29T11:47:41;96004.72;;;31.62;38.81
66479;BME280;53294;47.912;13.526;2022-07-29T11:50:26;95994.94;;;31.57;38.66
66479;BME280;53294;47.912;13.526;2022-07-29T11:52:53;95990.09;;;31.45;37.62
66479;BME280;53294;47.912;13.526;2022-07-29T11:55:22;95996.44;;;31.75;38.65
66479;BME280;53294;47.912;13.526;2022-07-29T11:58:00;95989.00;;;32.14;37.83
66479;BME280;53294;47.912;13.526;2022-07-29T12:00:35;95982.22;;;32.41;37.78
66479;BME280;53294;47.912;13.526;2022-07-29T12:03:04;95984.03;;;32.73;37.05
66479;BME280;53294;47.912;13.526;2022-07-29T12:05:43;95971.56;;;33.13;36.21
66479;BME280;53294;47.912;13.526;2022-07-29T12:08:19;95969.31;;;33.33;36.37
66479;BME280;53294;47.912;13.526;2022-07-29T12:10:47;95955.56;;;33.17;34.96
66479;BME280;53294;47.912;13.526;2022-07-29T12:13:16;95967.22;;;33.24;34.79
66479;BME280;53294;47.912;13.526;2022-07-29T12:15:52;95953.25;;;33.37;33.65
66479;BME280;53294;47.912;13.526;2022-07-29T12:18:20;95957.47;;;33.42;33.04
66479;BME280;53294;47.912;13.526;2022-07-29T12:20:56;95949.56;;;33.75;33.75
66479;BME280;53294;47.912;13.526;2022-07-29T12:23:23;95949.59;;;33.85;35.17
66479;BME280;53294;47.912;13.526;2022-07-29T12:25:54;95948.09;;;33.93;34.59
66479;BME280;53294;47.912;13.526;2022-07-29T12:28:21;95945.09;;;34.09;35.13
66479;BME280;53294;47.912;13.526;2022-07-29T12:30:52;95937.41;;;34.23;33.76
66479;BME280;53294;47.912;13.526;2022-07-29T12:33:24;95940.63;;;34.43;33.46
66479;BME280;53294;47.912;13.526;2022-07-29T12:35:58;95948.81;;;34.87;34.05
66479;BME280;53294;47.912;13.526;2022-07-29T12:38:39;95935.16;;;34.80;32.89
66479;BME280;53294;47.912;13.526;2022-07-29T12:41:06;95932.56;;;35.04;32.18
66479;BME280;53294;47.912;13.526;2022-07-29T12:43:33;95933.50;;;35.20;31.48
66479;BME280;53294;47.912;13.526;2022-07-29T12:46:14;95929.94;;;35.38;30.63
66479;BME280;53294;47.912;13.526;2022-07-29T12:48:42;95927.44;;;35.58;30.69
66479;BME280;53294;47.912;13.526;2022-07-29T12:51:11;95937.53;;;35.37;29.44
66479;BME280;53294;47.912;13.526;2022-07-29T12:53:40;95922.06;;;35.27;30.34
66479;BME280;53294;47.912;13.526;2022-07-29T12:56:15;95926.34;;;35.65;29.50
66479;BME280;53294;47.912;13.526;2022-07-29T12:59:19;95934.25;;;35.76;29.00
66479;BME280;53294;47.912;13.526;2022-07-29T13:01:48;95933.53;;;36.09;28.06
66479;BME280;53294;47.912;13.526;2022-07-29T13:04:27;95926.81;;;35.82;29.16
66479;BME280;53294;47.912;13.526;2022-07-29T13:07:07;95937.25;;;34.58;27.98
66479;BME280;53294;47.912;13.526;2022-07-29T13:09:41;95927.69;;;34.27;29.47
66479;BME280;53294;47.912;13.526;2022-07-29T13:12:12;95920.91;;;34.78;28.37
66479;BME280;53294;47.912;13.526;2022-07-29T13:14:45;95929.81;;;34.55;28.75
66479;BME280;53294;47.912;13.526;2022-07-29T13:17:17;95920.47;;;35.08;29.92
66479;BME280;53294;47.912;13.526;2022-07-29T13:19:50;95920.63;;;35.41;29.38
66479;BME280;53294;47.912;13.526;2022-07-29T13:22:22;95917.53;;;35.48;31.07
66479;BME280;53294;47.912;13.526;2022-07-29T13:24:54;95918.28;;;35.58;30.19
66479;BME280;53294;47.912;13.526;2022-07-29T13:27:26;95921.03;;;35.86;29.19
66479;BME280;53294;47.912;13.526;2022-07-29T13:29:55;95913.00;;;36.21;28.25
66479;BME280;53294;47.912;13.526;2022-07-29T13:32:26;95912.03;;;36.34;28.01
66479;BME280;53294;47.912;13.526;2022-07-29T13:34:58;95912.19;;;36.39;28.00
66479;BME280;53294;47.912;13.526;2022-07-29T13:37:30;95911.66;;;36.50;29.62
66479;BME280;53294;47.912;13.526;2022-07-29T13:39:59;95909.34;;;36.48;29.38
66479;BME280;53294;47.912;13.526;2022-07-29T13:42:26;95900.03;;;36.76;26.88
66479;BME280;53294;47.912;13.526;2022-07-29T13:44:53;95895.25;;;36.91;27.26
66479;BME280;53294;47.912;13.526;2022-07-29T13:47:20;95884.88;;;36.58;27.61
66479;BME280;53294;47.912;13.526;2022-07-29T13:49:48;95891.19;;;36.68;27.21
66479;BME280;53294;47.912;13.526;2022-07-29T13:52:14;95886.38;;;36.44;24.14